Aptos, California
Current Conditions -  °F | °C
As of 7:53 AM on Tuesday 27 Jan 2015 (Local Time) from KWVI Reporting Station
Overcast Overcast  
Wind Chill: 57°   Ceiling: 9500
Heat Index: 57°   Visibility: 10mi
Dew Point: 48°   Wind: 6mph
Humidity: 72%   Direction: NA
Pressure: 30.18"   Gusts: NA
Location:  36.98°N, 121.89°W
Report Text: KWVI 271553Z AUTO VRB05KT 10SM OVC095 14/09 A3018 RMK AO2 SLP219 T01390089
Loading
Personal Weather Stations






























Interactive Weather Map New forecast layout! Learn more

10-Day Weather Forecast

Advertisements
Track Severe Weather on mobile